Time;durP1;ratioP1;P1;durP2;ratioP2;P2;SDS_P1;SDS_P2;PMS_P1;PMS_P2;Temp;Humidity;BMP_temperature;BMP_pressure;BME280_temperature;BME280_humidity;BME280_pressure;Samples;Min_cycle;Max_cycle;Signal;HPM_P1;HPM_P2
2022/01/17 00:01:29;;;;;;;80.15;28.63;;;;;;;;;;4983963;28;20213;-51
2022/01/17 00:03:55;;;;;;;67.63;27.75;;;;;;;;;;4982139;28;20186;-51
2022/01/17 00:06:22;;;;;;;76.88;28.27;;;;;;;;;;4982619;28;20186;-51
2022/01/17 00:08:49;;;;;;;70.47;27.27;;;;;;;;;;4984010;28;20216;-51
2022/01/17 00:11:16;;;;;;;74.75;27.83;;;;;;;;;;4983240;28;20172;-50
2022/01/17 00:13:42;;;;;;;77.85;29.88;;;;;;;;;;4982528;28;20177;-50
2022/01/17 00:16:18;;;;;;;72.20;28.33;;;;;;;;;;4982000;28;20181;-51
2022/01/17 00:21:13;;;;;;;77.85;27.70;;;;;;;;;;4983959;28;20313;-51
2022/01/17 00:23:40;;;;;;;82.65;26.90;;;;;;;;;;4983478;28;20201;-51
2022/01/17 00:26:06;;;;;;;73.57;28.55;;;;;;;;;;4981263;28;20181;-50
2022/01/17 00:28:33;;;;;;;77.47;29.85;;;;;;;;;;4983018;28;20198;-50
2022/01/17 00:31:04;;;;;;;66.47;26.60;;;;;;;;;;4985885;28;20582;-50
2022/01/17 00:33:31;;;;;;;72.15;26.38;;;;;;;;;;4987170;28;20164;-50
2022/01/17 00:35:57;;;;;;;76.43;30.17;;;;;;;;;;4988098;28;20188;-50
2022/01/17 00:38:23;;;;;;;70.27;29.47;;;;;;;;;;4985535;28;20233;-50
2022/01/17 00:40:49;;;;;;;70.22;27.25;;;;;;;;;;4987357;28;20436;-51
2022/01/17 00:43:15;;;;;;;59.53;25.37;;;;;;;;;;4986250;28;20765;-50
2022/01/17 00:45:44;;;;;;;73.97;26.02;;;;;;;;;;4987228;28;20467;-50
2022/01/17 00:48:10;;;;;;;67.63;28.15;;;;;;;;;;4986827;28;20202;-50
2022/01/17 00:50:40;;;;;;;73.95;26.83;;;;;;;;;;4987802;28;20166;-51
2022/01/17 00:53:07;;;;;;;63.50;26.10;;;;;;;;;;4986537;28;20182;-50
2022/01/17 00:55:33;;;;;;;75.20;27.50;;;;;;;;;;4987340;28;20184;-50
2022/01/17 00:57:59;;;;;;;67.80;28.67;;;;;;;;;;4987102;28;20606;-50
2022/01/17 01:00:26;;;;;;;73.20;26.67;;;;;;;;;;4986384;28;20178;-51
2022/01/17 01:02:52;;;;;;;71.57;27.05;;;;;;;;;;4986595;28;20176;-50
2022/01/17 01:05:18;;;;;;;59.63;26.25;;;;;;;;;;4987153;28;20219;-50
2022/01/17 01:07:44;;;;;;;58.93;26.77;;;;;;;;;;4985596;28;20280;-51
2022/01/17 01:10:11;;;;;;;68.90;25.23;;;;;;;;;;4986471;28;20406;-51
2022/01/17 01:12:41;;;;;;;74.07;27.08;;;;;;;;;;4984390;28;20487;-51
2022/01/17 01:15:12;;;;;;;61.95;25.05;;;;;;;;;;4987054;28;20166;-50
2022/01/17 01:17:49;;;;;;;64.57;25.63;;;;;;;;;;4987390;28;20282;-51
2022/01/17 01:28:26;;;;;;;64.90;26.55;;;;;;;;;;4986863;28;20247;-50
2022/01/17 01:30:55;;;;;;;57.93;25.73;;;;;;;;;;4985678;28;20256;-51
2022/01/17 01:33:32;;;;;;;62.92;28.25;;;;;;;;;;4986714;28;20429;-50
2022/01/17 01:36:03;;;;;;;72.07;27.33;;;;;;;;;;4986683;28;20173;-51
2022/01/17 01:38:29;;;;;;;65.40;25.90;;;;;;;;;;4984959;28;20788;-51
2022/01/17 01:40:55;;;;;;;69.57;26.73;;;;;;;;;;4985859;28;20176;-52
2022/01/17 01:43:21;;;;;;;65.67;27.47;;;;;;;;;;4984502;28;20201;-51
2022/01/17 01:45:56;;;;;;;66.65;27.00;;;;;;;;;;4986612;28;20548;-51
2022/01/17 01:48:22;;;;;;;60.92;27.48;;;;;;;;;;4987011;28;20343;-51
2022/01/17 01:50:48;;;;;;;64.97;27.10;;;;;;;;;;4984397;28;20217;-51
2022/01/17 01:53:14;;;;;;;59.70;26.70;;;;;;;;;;4986491;28;20401;-51
2022/01/17 01:55:40;;;;;;;66.45;26.48;;;;;;;;;;4985978;28;20444;-51
2022/01/17 01:58:06;;;;;;;57.10;25.13;;;;;;;;;;4985584;28;20219;-51
2022/01/17 02:00:32;;;;;;;64.83;26.20;;;;;;;;;;4985400;28;20209;-51
2022/01/17 02:02:58;;;;;;;62.45;25.50;;;;;;;;;;4984893;28;20673;-51
2022/01/17 02:05:25;;;;;;;66.47;26.30;;;;;;;;;;4985439;28;20170;-51
2022/01/17 02:07:51;;;;;;;67.53;28.30;;;;;;;;;;4985328;28;20581;-51
2022/01/17 02:10:17;;;;;;;62.28;27.75;;;;;;;;;;4984532;28;20602;-51
2022/01/17 02:12:43;;;;;;;63.10;28.65;;;;;;;;;;4985280;28;20253;-50
2022/01/17 02:15:13;;;;;;;64.43;28.83;;;;;;;;;;4985430;28;20184;-51
2022/01/17 02:17:45;;;;;;;62.60;27.55;;;;;;;;;;4984846;28;20186;-50
2022/01/17 02:20:16;;;;;;;75.32;28.80;;;;;;;;;;4985164;28;20596;-51
2022/01/17 02:22:42;;;;;;;70.78;27.90;;;;;;;;;;4983997;28;20189;-51
2022/01/17 02:25:08;;;;;;;64.27;26.40;;;;;;;;;;4985793;28;20174;-50
2022/01/17 02:27:35;;;;;;;75.18;29.58;;;;;;;;;;4985379;28;20528;-51
2022/01/17 02:30:01;;;;;;;92.07;31.77;;;;;;;;;;4985136;28;20201;-51
2022/01/17 02:32:27;;;;;;;69.83;29.67;;;;;;;;;;4984723;28;20170;-50
2022/01/17 02:35:10;;;;;;;70.43;28.00;;;;;;;;;;4985565;28;20456;-50
2022/01/17 02:37:36;;;;;;;84.10;29.00;;;;;;;;;;4985270;28;20429;-50
2022/01/17 02:40:02;;;;;;;89.70;33.27;;;;;;;;;;4983790;28;20237;-50
2022/01/17 02:42:28;;;;;;;69.97;28.77;;;;;;;;;;4985454;28;20492;-51
2022/01/17 02:44:59;;;;;;;79.67;31.97;;;;;;;;;;4984663;28;20405;-51
2022/01/17 02:47:25;;;;;;;77.57;34.80;;;;;;;;;;4984039;28;20482;-51
2022/01/17 02:49:51;;;;;;;84.90;33.10;;;;;;;;;;4984108;28;20201;-51
2022/01/17 02:52:19;;;;;;;78.43;33.80;;;;;;;;;;4984338;28;20402;-51
2022/01/17 02:54:45;;;;;;;77.90;33.95;;;;;;;;;;4984589;28;20488;-51
2022/01/17 02:57:11;;;;;;;75.60;31.67;;;;;;;;;;4983059;28;20205;-51
2022/01/17 02:59:37;;;;;;;77.27;30.83;;;;;;;;;;4984224;28;20416;-51
2022/01/17 03:02:04;;;;;;;83.17;32.57;;;;;;;;;;4983843;28;20932;-51
2022/01/17 03:04:32;;;;;;;80.38;29.10;;;;;;;;;;4984556;28;20402;-52
2022/01/17 03:06:58;;;;;;;80.18;32.08;;;;;;;;;;4984108;28;20178;-51
2022/01/17 03:09:27;;;;;;;81.63;30.83;;;;;;;;;;4982582;28;20213;-51
2022/01/17 03:11:53;;;;;;;86.68;33.53;;;;;;;;;;4964755;28;20406;-51
2022/01/17 03:14:19;;;;;;;92.70;32.57;;;;;;;;;;4964899;29;20178;-51
2022/01/17 03:16:47;;;;;;;81.03;31.40;;;;;;;;;;4965106;29;20492;-51
2022/01/17 03:19:13;;;;;;;79.40;31.30;;;;;;;;;;4963670;28;20433;-50
2022/01/17 03:21:39;;;;;;;77.17;30.57;;;;;;;;;;4963291;28;20182;-51
2022/01/17 03:24:07;;;;;;;81.43;31.90;;;;;;;;;;4963320;29;20418;-51
2022/01/17 03:26:33;;;;;;;82.05;31.83;;;;;;;;;;4964395;28;20406;-51
2022/01/17 03:29:00;;;;;;;71.32;31.65;;;;;;;;;;4964137;29;20210;-51
2022/01/17 03:31:25;;;;;;;69.35;29.92;;;;;;;;;;4964237;28;20178;-51
2022/01/17 03:33:51;;;;;;;92.20;32.00;;;;;;;;;;4964728;29;20189;-52
2022/01/17 03:36:17;;;;;;;91.33;30.23;;;;;;;;;;4964132;29;20402;-52
2022/01/17 03:38:43;;;;;;;83.33;31.00;;;;;;;;;;4964942;29;20461;-50
2022/01/17 03:41:13;;;;;;;77.80;30.53;;;;;;;;;;4975303;28;20464;-52
2022/01/17 03:43:39;;;;;;;84.82;31.67;;;;;;;;;;4984413;28;20417;-52
2022/01/17 03:46:05;;;;;;;71.60;29.23;;;;;;;;;;4984366;28;20252;-51
2022/01/17 03:48:32;;;;;;;85.85;32.50;;;;;;;;;;4983902;28;20356;-52
2022/01/17 03:50:59;;;;;;;73.05;27.08;;;;;;;;;;4982664;28;20600;-51
2022/01/17 03:53:25;;;;;;;76.75;30.08;;;;;;;;;;4983196;28;20233;-51
2022/01/17 03:55:51;;;;;;;62.97;28.45;;;;;;;;;;4983938;28;20173;-52
2022/01/17 03:58:18;;;;;;;77.55;33.28;;;;;;;;;;4982950;28;20681;-51
2022/01/17 04:00:47;;;;;;;74.13;30.05;;;;;;;;;;4982372;28;20292;-51
2022/01/17 04:03:13;;;;;;;87.68;29.73;;;;;;;;;;4982524;28;20208;-51
2022/01/17 04:05:39;;;;;;;70.20;27.88;;;;;;;;;;4982495;28;20181;-51
2022/01/17 04:08:06;;;;;;;67.25;28.40;;;;;;;;;;4982288;28;20206;-52
2022/01/17 04:10:32;;;;;;;59.03;26.45;;;;;;;;;;4981028;28;20174;-51
2022/01/17 04:13:04;;;;;;;64.13;27.25;;;;;;;;;;4982060;28;20208;-52
2022/01/17 04:15:31;;;;;;;70.47;28.23;;;;;;;;;;4983068;28;20165;-51
2022/01/17 04:17:57;;;;;;;62.47;25.97;;;;;;;;;;4997656;28;20665;-51
2022/01/17 04:20:26;;;;;;;64.43;28.67;;;;;;;;;;4983560;28;20434;-51
2022/01/17 04:22:54;;;;;;;62.58;26.60;;;;;;;;;;4982698;28;20180;-51
2022/01/17 04:25:20;;;;;;;65.60;27.00;;;;;;;;;;4982745;28;20176;-51
2022/01/17 04:27:47;;;;;;;74.80;28.05;;;;;;;;;;4982387;28;20224;-52
2022/01/17 04:30:13;;;;;;;73.50;28.92;;;;;;;;;;4982923;28;20170;-51
2022/01/17 04:32:40;;;;;;;67.70;29.65;;;;;;;;;;4982316;28;20188;-51
2022/01/17 04:35:06;;;;;;;65.53;26.63;;;;;;;;;;4982352;28;20189;-51
2022/01/17 04:37:32;;;;;;;58.33;27.42;;;;;;;;;;4997779;28;20196;-51
2022/01/17 04:39:58;;;;;;;61.83;26.17;;;;;;;;;;4981817;28;20193;-51
2022/01/17 04:42:28;;;;;;;59.33;25.42;;;;;;;;;;4981545;28;20404;-52
2022/01/17 04:45:11;;;;;;;56.08;25.30;;;;;;;;;;4981630;28;20248;-51
2022/01/17 04:47:37;;;;;;;69.78;25.50;;;;;;;;;;4981399;28;20205;-51
2022/01/17 04:50:04;;;;;;;67.32;27.83;;;;;;;;;;4979684;28;20221;-51
2022/01/17 04:52:30;;;;;;;68.03;27.20;;;;;;;;;;4982421;28;20184;-51
2022/01/17 04:55:01;;;;;;;66.60;25.00;;;;;;;;;;4980672;28;20170;-52
2022/01/17 04:57:27;;;;;;;60.00;25.85;;;;;;;;;;4981412;28;20186;-51
2022/01/17 04:59:53;;;;;;;64.90;26.70;;;;;;;;;;4981910;28;20169;-51
2022/01/17 05:02:19;;;;;;;63.35;26.02;;;;;;;;;;4982252;28;20173;-52
2022/01/17 05:04:45;;;;;;;63.92;29.27;;;;;;;;;;4981139;28;20170;-51
2022/01/17 05:07:12;;;;;;;63.53;25.80;;;;;;;;;;4981193;28;20174;-52
2022/01/17 05:09:39;;;;;;;54.08;24.92;;;;;;;;;;4980232;28;20455;-51
2022/01/17 05:12:06;;;;;;;54.67;24.80;;;;;;;;;;4980259;28;20177;-51
2022/01/17 05:14:32;;;;;;;58.20;24.77;;;;;;;;;;4981585;28;20174;-51
2022/01/17 05:17:05;;;;;;;72.38;24.75;;;;;;;;;;4983410;28;20166;-52
2022/01/17 05:19:49;;;;;;;52.05;23.90;;;;;;;;;;4979187;28;20162;-50
2022/01/17 05:22:16;;;;;;;62.92;23.55;;;;;;;;;;4975379;28;20223;-50
2022/01/17 05:24:42;;;;;;;62.67;23.95;;;;;;;;;;4975208;28;20176;-51
2022/01/17 05:27:08;;;;;;;43.15;19.60;;;;;;;;;;4975160;28;20646;-51
2022/01/17 05:29:34;;;;;;;49.95;20.83;;;;;;;;;;4975018;28;20226;-50
2022/01/17 05:32:00;;;;;;;53.30;20.17;;;;;;;;;;4975158;28;20320;-52
2022/01/17 05:34:26;;;;;;;37.83;17.00;;;;;;;;;;4975223;28;20401;-50
2022/01/17 05:36:52;;;;;;;43.75;19.42;;;;;;;;;;4975217;28;20397;-50
2022/01/17 05:39:18;;;;;;;42.47;19.70;;;;;;;;;;4973905;28;20193;-50
2022/01/17 05:41:45;;;;;;;42.70;19.33;;;;;;;;;;4975304;28;20659;-50
2022/01/17 05:44:11;;;;;;;42.45;19.02;;;;;;;;;;4975311;28;20444;-51
2022/01/17 05:46:38;;;;;;;42.13;16.65;;;;;;;;;;4975170;28;20185;-50
2022/01/17 05:49:04;;;;;;;42.05;16.92;;;;;;;;;;4974598;28;20205;-50
2022/01/17 05:51:30;;;;;;;40.78;17.45;;;;;;;;;;4974998;28;20174;-50
2022/01/17 05:53:56;;;;;;;43.22;16.67;;;;;;;;;;4974697;28;20772;-50
2022/01/17 05:56:22;;;;;;;45.00;18.10;;;;;;;;;;4974802;28;20173;-50
2022/01/17 05:58:48;;;;;;;33.28;15.57;;;;;;;;;;4974541;28;20503;-50
2022/01/17 06:01:15;;;;;;;39.90;17.13;;;;;;;;;;4974554;28;20174;-50
2022/01/17 06:03:41;;;;;;;42.58;15.65;;;;;;;;;;4974630;28;21095;-50
2022/01/17 06:06:07;;;;;;;36.35;15.85;;;;;;;;;;4974575;28;20174;-50
2022/01/17 06:08:33;;;;;;;36.45;16.33;;;;;;;;;;4974296;28;20205;-50
2022/01/17 06:11:00;;;;;;;34.88;14.57;;;;;;;;;;4973357;28;20264;-51
2022/01/17 06:13:26;;;;;;;34.88;16.58;;;;;;;;;;4974450;28;20166;-50
2022/01/17 06:15:52;;;;;;;31.20;15.23;;;;;;;;;;4974506;28;20174;-50
2022/01/17 06:18:18;;;;;;;32.80;14.83;;;;;;;;;;4974331;28;20565;-50
2022/01/17 06:20:44;;;;;;;30.73;15.13;;;;;;;;;;4974025;28;20409;-50
2022/01/17 06:23:10;;;;;;;33.63;13.90;;;;;;;;;;4974155;28;20401;-50
2022/01/17 06:25:36;;;;;;;34.97;15.43;;;;;;;;;;4974208;28;20416;-51
2022/01/17 06:28:02;;;;;;;25.73;13.10;;;;;;;;;;4973182;28;20468;-51
2022/01/17 06:30:28;;;;;;;32.27;15.57;;;;;;;;;;4974105;28;20460;-50
2022/01/17 06:32:54;;;;;;;36.43;14.80;;;;;;;;;;4974054;28;20401;-50
2022/01/17 06:35:20;;;;;;;38.40;15.15;;;;;;;;;;4974033;28;20816;-50
2022/01/17 06:37:46;;;;;;;29.25;14.07;;;;;;;;;;4973884;28;20185;-50
2022/01/17 06:40:12;;;;;;;29.02;13.55;;;;;;;;;;4972838;28;20269;-50
2022/01/17 06:42:39;;;;;;;30.23;15.38;;;;;;;;;;4973149;28;20252;-50
2022/01/17 06:45:05;;;;;;;32.55;13.65;;;;;;;;;;4973919;28;20168;-50
2022/01/17 06:47:32;;;;;;;28.38;13.82;;;;;;;;;;4973740;28;20181;-50
2022/01/17 06:49:58;;;;;;;29.45;14.57;;;;;;;;;;4973466;28;20249;-51
2022/01/17 06:52:24;;;;;;;29.13;14.17;;;;;;;;;;4973661;28;20245;-50
2022/01/17 06:54:52;;;;;;;33.65;15.48;;;;;;;;;;4973650;28;20406;-51
2022/01/17 06:57:18;;;;;;;31.05;14.32;;;;;;;;;;4973508;28;20249;-50
2022/01/17 06:59:44;;;;;;;36.33;15.32;;;;;;;;;;4973432;28;20199;-50
2022/01/17 07:02:11;;;;;;;30.58;15.75;;;;;;;;;;4973577;28;20170;-50
2022/01/17 07:04:37;;;;;;;28.55;13.98;;;;;;;;;;4973475;28;20248;-52
2022/01/17 07:07:03;;;;;;;35.90;15.80;;;;;;;;;;4973426;28;20257;-50
2022/01/17 07:09:30;;;;;;;28.38;14.73;;;;;;;;;;4972112;28;20467;-50
2022/01/17 07:11:59;;;;;;;43.07;16.13;;;;;;;;;;4972526;28;20212;-51
2022/01/17 07:14:25;;;;;;;43.53;15.63;;;;;;;;;;4973385;28;20404;-50
2022/01/17 07:16:51;;;;;;;41.92;14.40;;;;;;;;;;4973379;28;20253;-50
2022/01/17 07:19:17;;;;;;;37.47;13.48;;;;;;;;;;4972880;28;20182;-50
2022/01/17 07:21:43;;;;;;;47.63;14.73;;;;;;;;;;4973091;28;20173;-50
2022/01/17 07:24:09;;;;;;;27.15;13.57;;;;;;;;;;4973177;28;20475;-50
2022/01/17 07:26:35;;;;;;;25.50;13.47;;;;;;;;;;4973330;28;20256;-50
2022/01/17 07:29:02;;;;;;;26.70;13.70;;;;;;;;;;4972756;28;20463;-51
2022/01/17 07:31:28;;;;;;;33.28;13.60;;;;;;;;;;4973167;28;20401;-50
2022/01/17 07:33:54;;;;;;;34.77;12.70;;;;;;;;;;4972928;28;20199;-50
2022/01/17 07:36:20;;;;;;;27.27;13.00;;;;;;;;;;4972907;28;20420;-52
2022/01/17 07:38:47;;;;;;;30.38;12.88;;;;;;;;;;4972506;28;20436;-50
2022/01/17 07:41:13;;;;;;;29.63;13.45;;;;;;;;;;4970669;28;20208;-50
2022/01/17 07:43:41;;;;;;;33.53;14.00;;;;;;;;;;4972782;28;20177;-50
2022/01/17 07:46:17;;;;;;;26.90;12.20;;;;;;;;;;4972799;28;20252;-50
2022/01/17 07:49:09;;;;;;;23.27;12.32;;;;;;;;;;4972657;28;20204;-51
2022/01/17 07:51:36;;;;;;;28.08;13.35;;;;;;;;;;4972741;28;20586;-52
2022/01/17 07:54:03;;;;;;;17.30;11.82;;;;;;;;;;4972593;28;20173;-50
2022/01/17 07:56:30;;;;;;;35.80;13.90;;;;;;;;;;4972581;28;20275;-53
2022/01/17 07:58:56;;;;;;;32.85;13.68;;;;;;;;;;4971597;28;20229;-50
2022/01/17 08:01:22;;;;;;;30.05;13.50;;;;;;;;;;4972382;28;20205;-50
2022/01/17 08:03:48;;;;;;;26.98;12.90;;;;;;;;;;4972396;28;20173;-52
2022/01/17 08:06:14;;;;;;;25.63;13.30;;;;;;;;;;4972441;28;20189;-50
2022/01/17 08:08:40;;;;;;;20.97;11.27;;;;;;;;;;4972314;28;20457;-50
2022/01/17 08:11:06;;;;;;;27.08;13.35;;;;;;;;;;4971223;28;20431;-50
2022/01/17 08:13:32;;;;;;;22.13;12.57;;;;;;;;;;4972017;28;20162;-50
2022/01/17 08:15:58;;;;;;;33.10;14.13;;;;;;;;;;4972316;28;20909;-50
2022/01/17 08:18:24;;;;;;;34.37;14.07;;;;;;;;;;4972156;28;20425;-50
2022/01/17 08:20:50;;;;;;;29.53;16.27;;;;;;;;;;4972112;28;20577;-51
2022/01/17 08:23:16;;;;;;;37.20;16.90;;;;;;;;;;4972021;28;20418;-51
2022/01/17 08:25:42;;;;;;;32.60;15.10;;;;;;;;;;4972138;28;20173;-50
2022/01/17 08:28:08;;;;;;;29.20;16.83;;;;;;;;;;4971593;28;20471;-50
2022/01/17 08:30:34;;;;;;;36.80;18.90;;;;;;;;;;4971936;28;20910;-50
2022/01/17 08:33:00;;;;;;;35.50;19.67;;;;;;;;;;4970026;28;20428;-50
2022/01/17 08:35:26;;;;;;;40.55;21.15;;;;;;;;;;4971931;28;20170;-50
2022/01/17 08:37:52;;;;;;;43.72;21.00;;;;;;;;;;4971666;28;20198;-50
2022/01/17 08:40:19;;;;;;;47.47;19.87;;;;;;;;;;4971045;28;20712;-50
2022/01/17 08:42:49;;;;;;;36.97;20.60;;;;;;;;;;4971956;28;20405;-50
2022/01/17 08:45:15;;;;;;;39.60;20.58;;;;;;;;;;4971628;28;20212;-50
2022/01/17 08:47:46;;;;;;;38.50;20.55;;;;;;;;;;4971876;28;20188;-50
2022/01/17 08:50:12;;;;;;;36.67;22.63;;;;;;;;;;4971556;28;20162;-50
2022/01/17 08:52:38;;;;;;;40.90;21.60;;;;;;;;;;4975185;28;20173;-50
2022/01/17 08:55:04;;;;;;;38.47;21.23;;;;;;;;;;4975001;28;20412;-51
2022/01/17 08:57:30;;;;;;;39.72;22.95;;;;;;;;;;4975649;28;20527;-50
2022/01/17 08:59:57;;;;;;;33.30;21.47;;;;;;;;;;4975639;28;20173;-50
2022/01/17 09:02:23;;;;;;;39.80;23.02;;;;;;;;;;4975682;28;20405;-52
2022/01/17 09:04:49;;;;;;;46.20;24.97;;;;;;;;;;4975587;28;20577;-54
2022/01/17 09:07:16;;;;;;;39.20;23.73;;;;;;;;;;4975399;28;20405;-50
2022/01/17 09:09:43;;;;;;;46.13;25.63;;;;;;;;;;4974173;28;20460;-50
2022/01/17 09:12:10;;;;;;;46.00;24.60;;;;;;;;;;4975434;28;20170;-50
2022/01/17 09:14:37;;;;;;;46.72;22.63;;;;;;;;;;4975190;28;20165;-51
2022/01/17 09:17:04;;;;;;;45.97;22.65;;;;;;;;;;4975280;28;20648;-50
2022/01/17 09:19:30;;;;;;;45.55;24.33;;;;;;;;;;4974819;28;20186;-50
2022/01/17 09:21:56;;;;;;;43.92;25.10;;;;;;;;;;4975362;28;20166;-49
2022/01/17 09:24:22;;;;;;;42.55;22.60;;;;;;;;;;4974357;28;20173;-50
2022/01/17 09:26:48;;;;;;;46.77;25.03;;;;;;;;;;4973702;28;20252;-51
2022/01/17 09:29:14;;;;;;;45.07;23.57;;;;;;;;;;4974063;28;20468;-50
2022/01/17 09:31:40;;;;;;;49.57;25.70;;;;;;;;;;4975071;28;20521;-53
2022/01/17 09:34:06;;;;;;;45.97;25.57;;;;;;;;;;4975129;28;20425;-50
2022/01/17 09:36:34;;;;;;;42.72;26.10;;;;;;;;;;4975112;28;20413;-51
2022/01/17 09:39:01;;;;;;;46.35;25.77;;;;;;;;;;4974579;28;20198;-53
2022/01/17 09:41:27;;;;;;;42.10;24.42;;;;;;;;;;4974813;28;20224;-50
2022/01/17 09:43:53;;;;;;;47.00;25.63;;;;;;;;;;4974940;28;20177;-50
2022/01/17 09:46:23;;;;;;;44.67;23.45;;;;;;;;;;4974983;28;20166;-50
2022/01/17 09:48:51;;;;;;;37.75;24.77;;;;;;;;;;4974871;28;20201;-51
2022/01/17 09:51:40;;;;;;;51.03;26.33;;;;;;;;;;4974731;28;20539;-50
2022/01/17 09:54:07;;;;;;;44.70;24.52;;;;;;;;;;4974940;28;20181;-50
2022/01/17 09:56:33;;;;;;;51.27;24.70;;;;;;;;;;4974710;28;20170;-51
2022/01/17 09:58:59;;;;;;;46.22;23.98;;;;;;;;;;4974398;28;20461;-50
2022/01/17 10:01:27;;;;;;;50.95;25.67;;;;;;;;;;4974780;28;20518;-50
2022/01/17 10:03:56;;;;;;;43.28;23.67;;;;;;;;;;4973264;28;20174;-50
2022/01/17 10:06:23;;;;;;;39.70;25.20;;;;;;;;;;4974897;28;20167;-50
2022/01/17 10:08:49;;;;;;;45.17;24.38;;;;;;;;;;4973758;28;20471;-50
2022/01/17 10:11:16;;;;;;;53.83;28.00;;;;;;;;;;4974662;28;20533;-50
2022/01/17 10:13:45;;;;;;;47.65;25.30;;;;;;;;;;4973928;28;20848;-54
2022/01/17 10:16:21;;;;;;;45.97;28.17;;;;;;;;;;4974445;28;20167;-51
2022/01/17 10:18:54;;;;;;;39.25;25.70;;;;;;;;;;4974686;28;20535;-50
2022/01/17 10:21:41;;;;;;;55.50;27.80;;;;;;;;;;4973121;28;20325;-50
2022/01/17 10:24:23;;;;;;;51.00;25.48;;;;;;;;;;4974440;28;20424;-51
2022/01/17 10:27:03;;;;;;;48.95;25.80;;;;;;;;;;4974130;28;20179;-50
2022/01/17 10:30:14;;;;;;;48.25;26.85;;;;;;;;;;4973820;28;20597;-51
2022/01/17 10:35:15;;;;;;;49.22;26.58;;;;;;;;;;4973803;28;20177;-51
2022/01/17 10:37:42;;;;;;;40.03;24.30;;;;;;;;;;4973883;28;20197;-50
2022/01/17 10:40:12;;;;;;;41.08;26.00;;;;;;;;;;4972447;28;20186;-51
2022/01/17 10:42:42;;;;;;;54.85;27.05;;;;;;;;;;4974047;28;20654;-51
2022/01/17 10:45:11;;;;;;;47.90;27.15;;;;;;;;;;4973910;28;20177;-50
2022/01/17 10:47:39;;;;;;;50.72;28.00;;;;;;;;;;4972720;28;20201;-52
2022/01/17 10:50:26;;;;;;;53.40;28.85;;;;;;;;;;4973584;28;20180;-51
2022/01/17 10:52:56;;;;;;;50.30;26.23;;;;;;;;;;4973609;28;20174;-51
2022/01/17 10:55:27;;;;;;;62.97;27.98;;;;;;;;;;4973623;28;20669;-51
2022/01/17 10:57:54;;;;;;;49.75;27.15;;;;;;;;;;4973340;28;20227;-50
2022/01/17 11:00:25;;;;;;;55.13;28.80;;;;;;;;;;4973357;28;20819;-51
2022/01/17 11:02:55;;;;;;;41.47;26.20;;;;;;;;;;4973647;28;20432;-50
2022/01/17 11:05:22;;;;;;;49.90;28.35;;;;;;;;;;4973481;28;20182;-50
2022/01/17 11:07:51;;;;;;;54.58;27.50;;;;;;;;;;4973358;28;20186;-50
2022/01/17 11:10:43;;;;;;;57.30;27.25;;;;;;;;;;4972184;28;20180;-51
2022/01/17 11:13:11;;;;;;;42.88;25.52;;;;;;;;;;4971514;28;20681;-53
2022/01/17 11:15:38;;;;;;;55.97;28.05;;;;;;;;;;4973279;28;20596;-50
2022/01/17 11:18:11;;;;;;;49.93;26.80;;;;;;;;;;4973186;28;20192;-50
2022/01/17 11:20:37;;;;;;;38.40;22.87;;;;;;;;;;4973587;28;20454;-51
2022/01/17 11:23:03;;;;;;;39.78;22.35;;;;;;;;;;4973122;28;20811;-51
2022/01/17 11:25:33;;;;;;;38.08;24.02;;;;;;;;;;4972052;28;20257;-52
2022/01/17 11:28:00;;;;;;;44.35;24.67;;;;;;;;;;4972975;28;20689;-51
2022/01/17 11:30:26;;;;;;;37.90;23.40;;;;;;;;;;4972908;28;20201;-51
2022/01/17 11:32:54;;;;;;;45.23;24.23;;;;;;;;;;4973031;28;20413;-51
2022/01/17 11:35:21;;;;;;;44.80;25.40;;;;;;;;;;4972902;28;20776;-51
2022/01/17 11:37:49;;;;;;;45.85;24.25;;;;;;;;;;4972952;28;20187;-51
2022/01/17 11:40:15;;;;;;;47.40;24.60;;;;;;;;;;4971854;28;20217;-52
2022/01/17 11:42:41;;;;;;;41.63;25.48;;;;;;;;;;4972793;28;20174;-52
2022/01/17 11:45:27;;;;;;;57.83;24.60;;;;;;;;;;4972779;28;20170;-51
2022/01/17 11:48:05;;;;;;;42.33;24.60;;;;;;;;;;4961323;28;20444;-51
2022/01/17 11:50:36;;;;;;;47.90;27.80;;;;;;;;;;4972376;28;20945;-51
2022/01/17 11:53:11;;;;;;;55.10;27.80;;;;;;;;;;4972696;28;20485;-51
2022/01/17 11:55:43;;;;;;;40.63;23.23;;;;;;;;;;4972656;28;20842;-52
2022/01/17 11:58:19;;;;;;;48.00;25.38;;;;;;;;;;4972210;28;20216;-51
2022/01/17 12:00:46;;;;;;;48.43;23.83;;;;;;;;;;4972244;28;20178;-52
2022/01/17 12:03:22;;;;;;;51.40;27.03;;;;;;;;;;4972510;28;20536;-51
2022/01/17 12:05:48;;;;;;;49.27;26.47;;;;;;;;;;4972669;28;20511;-51
2022/01/17 12:08:16;;;;;;;64.17;30.33;;;;;;;;;;4972281;28;20497;-51
2022/01/17 12:10:47;;;;;;;49.38;27.67;;;;;;;;;;4970640;28;20438;-50
2022/01/17 12:13:33;;;;;;;52.28;26.60;;;;;;;;;;4972159;28;20180;-50
2022/01/17 12:16:06;;;;;;;50.90;28.50;;;;;;;;;;4971906;28;20554;-52
2022/01/17 12:18:34;;;;;;;59.55;28.17;;;;;;;;;;4971467;28;20252;-51
2022/01/17 12:21:19;;;;;;;43.85;26.15;;;;;;;;;;4972238;28;20182;-51
2022/01/17 12:23:45;;;;;;;53.50;25.20;;;;;;;;;;4972341;28;20257;-52
2022/01/17 12:26:27;;;;;;;43.93;25.60;;;;;;;;;;4970552;28;20434;-52
2022/01/17 12:28:54;;;;;;;49.60;24.55;;;;;;;;;;4969768;28;20527;-51
2022/01/17 12:31:39;;;;;;;44.40;22.63;;;;;;;;;;4972158;28;20521;-52
2022/01/17 12:34:19;;;;;;;44.87;22.60;;;;;;;;;;4972205;28;20248;-51
2022/01/17 12:36:47;;;;;;;43.60;22.58;;;;;;;;;;4971187;28;20954;-51
2022/01/17 12:39:15;;;;;;;36.97;22.60;;;;;;;;;;4971903;28;20220;-52
2022/01/17 12:41:43;;;;;;;45.25;22.38;;;;;;;;;;4972138;28;20197;-51
2022/01/17 12:44:14;;;;;;;31.43;21.37;;;;;;;;;;4971882;28;20175;-51
2022/01/17 12:46:42;;;;;;;53.53;22.77;;;;;;;;;;4972017;28;20401;-52
2022/01/17 12:49:08;;;;;;;43.80;22.40;;;;;;;;;;4970874;28;20596;-51
2022/01/17 12:51:34;;;;;;;47.72;21.63;;;;;;;;;;4972026;28;20181;-52
2022/01/17 12:54:02;;;;;;;42.37;21.73;;;;;;;;;;4972053;28;20173;-51
2022/01/17 12:56:29;;;;;;;44.63;22.50;;;;;;;;;;4972116;28;20405;-51
2022/01/17 12:58:59;;;;;;;37.47;21.83;;;;;;;;;;4971384;28;20456;-51
2022/01/17 13:01:26;;;;;;;42.13;20.80;;;;;;;;;;4972043;28;20410;-51
2022/01/17 13:03:52;;;;;;;44.85;22.73;;;;;;;;;;4971987;28;20931;-52
2022/01/17 13:06:19;;;;;;;32.43;20.20;;;;;;;;;;4972244;28;20171;-52
2022/01/17 13:08:46;;;;;;;40.43;21.87;;;;;;;;;;4971901;28;20445;-51
2022/01/17 13:11:12;;;;;;;43.27;21.37;;;;;;;;;;4971091;28;20460;-51
2022/01/17 13:13:48;;;;;;;41.63;19.83;;;;;;;;;;4971797;28;20545;-51
2022/01/17 13:16:16;;;;;;;49.27;21.97;;;;;;;;;;4969059;28;20429;-51
2022/01/17 13:18:42;;;;;;;44.80;19.87;;;;;;;;;;4971723;28;20921;-52
2022/01/17 13:21:08;;;;;;;41.80;20.87;;;;;;;;;;4971619;28;20408;-51
2022/01/17 13:23:38;;;;;;;34.40;21.03;;;;;;;;;;4971661;28;20973;-51
2022/01/17 13:26:04;;;;;;;45.30;21.53;;;;;;;;;;4971789;28;20401;-52
2022/01/17 13:28:30;;;;;;;48.27;22.50;;;;;;;;;;4971324;28;20464;-51
2022/01/17 13:30:56;;;;;;;40.30;21.17;;;;;;;;;;4971452;28;20401;-51
2022/01/17 13:33:22;;;;;;;41.33;21.17;;;;;;;;;;4971767;28;20429;-51
2022/01/17 13:35:53;;;;;;;33.47;20.10;;;;;;;;;;4971581;28;20407;-51
2022/01/17 13:38:22;;;;;;;42.67;19.58;;;;;;;;;;4974123;28;20940;-51
2022/01/17 13:40:52;;;;;;;56.73;24.27;;;;;;;;;;4974757;28;20170;-52
2022/01/17 13:43:18;;;;;;;46.87;22.53;;;;;;;;;;4974929;28;20769;-52
2022/01/17 13:45:46;;;;;;;47.60;21.93;;;;;;;;;;4973933;28;20440;-52
2022/01/17 13:48:13;;;;;;;46.70;23.17;;;;;;;;;;4974801;28;20457;-52
2022/01/17 13:51:00;;;;;;;35.90;21.40;;;;;;;;;;4974640;28;20404;-52
2022/01/17 13:53:27;;;;;;;40.55;21.38;;;;;;;;;;4974632;28;20430;-52
2022/01/17 13:55:54;;;;;;;41.42;21.15;;;;;;;;;;4974988;28;20190;-52
2022/01/17 13:58:20;;;;;;;42.97;22.17;;;;;;;;;;4974448;28;20206;-51
2022/01/17 14:00:53;;;;;;;44.43;21.80;;;;;;;;;;4974442;28;20893;-51
2022/01/17 14:03:23;;;;;;;41.00;22.27;;;;;;;;;;4974390;28;20403;-51
2022/01/17 14:05:50;;;;;;;39.87;21.40;;;;;;;;;;4974595;28;20489;-52
2022/01/17 14:08:21;;;;;;;51.50;23.40;;;;;;;;;;4974163;28;20481;-51
2022/01/17 14:10:48;;;;;;;51.70;23.57;;;;;;;;;;4974382;28;20922;-52
2022/01/17 14:13:17;;;;;;;46.43;21.53;;;;;;;;;;4974316;28;20761;-52
2022/01/17 14:15:43;;;;;;;36.60;20.93;;;;;;;;;;4973383;28;20535;-52
2022/01/17 14:18:10;;;;;;;52.97;20.60;;;;;;;;;;4974332;28;20898;-52
2022/01/17 14:20:38;;;;;;;42.13;19.70;;;;;;;;;;4974128;28;20409;-51
2022/01/17 14:23:04;;;;;;;42.13;19.07;;;;;;;;;;4974369;28;20406;-51
2022/01/17 14:25:30;;;;;;;39.03;18.40;;;;;;;;;;4974562;28;20412;-51
2022/01/17 14:28:01;;;;;;;41.93;18.87;;;;;;;;;;4974058;28;20776;-52
2022/01/17 14:30:28;;;;;;;41.33;19.77;;;;;;;;;;4973978;28;20406;-52
2022/01/17 14:33:29;;;;;;;39.97;16.47;;;;;;;;;;4972883;28;20509;-51
2022/01/17 14:36:04;;;;;;;40.10;17.27;;;;;;;;;;4914165;29;20980;-51